createdAt,value
2022-12-28T00:00:48.059Z,69.57
2022-12-28T00:01:48.111Z,69.57
2022-12-28T00:02:48.149Z,69.57
2022-12-28T00:03:47.987Z,69.57
2022-12-28T00:04:48.025Z,69.57
2022-12-28T00:05:47.990Z,69.57
2022-12-28T00:06:47.977Z,69.48
2022-12-28T00:07:48.008Z,69.38
2022-12-28T00:08:47.988Z,69.76
2022-12-28T00:09:47.963Z,69.29
2022-12-28T00:11:08.724Z,69.57
2022-12-28T00:11:47.974Z,69.76
2022-12-28T00:12:47.941Z,69.38
2022-12-28T00:13:47.944Z,69.38
2022-12-28T00:14:47.927Z,69.29
2022-12-28T00:15:47.926Z,69.29
2022-12-28T00:16:47.969Z,69.76
2022-12-28T00:17:47.910Z,69.48
2022-12-28T00:18:47.905Z,69.76
2022-12-28T00:19:47.924Z,69.67
2022-12-28T00:20:47.924Z,69.76
2022-12-28T00:21:47.901Z,69.67
2022-12-28T00:22:47.905Z,69.76
2022-12-28T00:23:47.906Z,69.57
2022-12-28T00:24:47.897Z,69.29
2022-12-28T00:25:47.895Z,69.48
2022-12-28T00:26:47.876Z,69.76
2022-12-28T00:27:47.888Z,69.67
2022-12-28T00:28:47.861Z,69.76
2022-12-28T00:29:47.853Z,69.67
2022-12-28T00:30:47.870Z,69.19
2022-12-28T00:31:47.942Z,69.19
2022-12-28T00:32:47.839Z,69.19
2022-12-28T00:33:47.857Z,69.09
2022-12-28T00:34:47.838Z,69.19
2022-12-28T00:35:47.835Z,69.19
2022-12-28T00:37:09.999Z,69.57
2022-12-28T00:37:47.818Z,69.29
2022-12-28T00:38:47.816Z,68.90
2022-12-28T00:39:47.802Z,69.09
2022-12-28T00:40:47.809Z,69.29
2022-12-28T00:41:47.830Z,69.19
2022-12-28T00:42:47.819Z,69.09
2022-12-28T00:43:47.792Z,69.29
2022-12-28T00:44:47.793Z,69.09
2022-12-28T00:45:47.827Z,69.19
2022-12-28T00:46:47.813Z,69.29
2022-12-28T00:47:47.779Z,69.19
2022-12-28T00:48:47.760Z,69.09
2022-12-28T00:49:47.770Z,69.19
2022-12-28T00:50:47.781Z,69.09
2022-12-28T00:51:47.777Z,69.09
2022-12-28T00:52:47.773Z,69.19
2022-12-28T00:53:47.749Z,69.09
2022-12-28T00:54:47.754Z,69.19
2022-12-28T00:55:47.750Z,69.19
2022-12-28T00:56:47.720Z,69.19
2022-12-28T00:57:47.742Z,69.00
2022-12-28T00:58:47.732Z,69.29
2022-12-28T00:59:47.739Z,69.19
2022-12-28T01:00:47.787Z,69.19
2022-12-28T01:01:47.823Z,69.19
2022-12-28T01:02:47.786Z,69.29
2022-12-28T01:03:47.700Z,69.19
2022-12-28T01:04:47.679Z,69.19
2022-12-28T01:05:47.691Z,69.19
2022-12-28T01:06:47.680Z,69.19
2022-12-28T01:07:47.692Z,69.29
2022-12-28T01:08:47.694Z,69.19
2022-12-28T01:09:47.672Z,69.19
2022-12-28T01:10:47.655Z,69.19
2022-12-28T01:11:47.660Z,69.29
2022-12-28T01:12:47.647Z,69.29
2022-12-28T01:13:47.642Z,69.19
2022-12-28T01:14:47.646Z,69.29
2022-12-28T01:15:47.644Z,69.29
2022-12-28T01:16:47.706Z,69.29
2022-12-28T01:17:47.633Z,69.19
2022-12-28T01:18:47.625Z,69.29
2022-12-28T01:19:53.792Z,69.29
2022-12-28T01:20:47.604Z,69.29
2022-12-28T01:21:47.611Z,69.38
2022-12-28T01:22:47.604Z,69.38
2022-12-28T01:23:47.607Z,69.29
2022-12-28T01:24:47.637Z,69.29
2022-12-28T01:25:47.612Z,69.29
2022-12-28T01:26:47.583Z,69.38
2022-12-28T01:27:47.587Z,69.38
2022-12-28T01:28:47.585Z,69.29
2022-12-28T01:29:47.567Z,69.29
2022-12-28T01:30:47.575Z,69.38
2022-12-28T01:31:47.646Z,69.38
2022-12-28T01:32:47.570Z,69.29
2022-12-28T01:33:47.569Z,69.38
2022-12-28T01:34:47.574Z,69.19
2022-12-28T01:35:47.529Z,69.29
2022-12-28T01:36:47.532Z,69.19
2022-12-28T01:37:47.539Z,69.19
2022-12-28T01:38:47.537Z,69.19
2022-12-28T01:39:47.525Z,69.29
2022-12-28T01:40:47.562Z,69.29
2022-12-28T01:41:47.521Z,69.38
2022-12-28T01:42:47.535Z,69.00
2022-12-28T01:43:47.490Z,69.48
2022-12-28T01:44:47.516Z,69.19
2022-12-28T01:45:47.559Z,69.29
2022-12-28T01:46:47.492Z,69.19
2022-12-28T01:47:47.487Z,69.29
2022-12-28T01:48:47.485Z,69.38
2022-12-28T01:49:47.493Z,69.09
2022-12-28T01:50:47.482Z,69.29
2022-12-28T01:51:47.477Z,69.09
2022-12-28T01:52:47.470Z,69.00
2022-12-28T01:53:47.454Z,69.09
2022-12-28T01:54:47.450Z,69.09
2022-12-28T01:55:47.449Z,69.38
2022-12-28T01:56:47.466Z,69.00
2022-12-28T01:57:47.430Z,69.09
2022-12-28T01:58:47.440Z,69.00
2022-12-28T01:59:47.445Z,69.19
2022-12-28T02:00:47.443Z,69.09
2022-12-28T02:01:47.540Z,69.09
2022-12-28T02:02:47.478Z,69.00
2022-12-28T02:03:47.415Z,68.90
2022-12-28T02:04:47.425Z,68.90
2022-12-28T02:05:47.388Z,69.00
2022-12-28T02:06:47.401Z,68.90
2022-12-28T02:07:47.405Z,68.90
2022-12-28T02:08:47.387Z,68.90
2022-12-28T02:10:41.750Z,68.90
2022-12-28T02:10:47.389Z,68.80
2022-12-28T02:11:47.361Z,68.90
2022-12-28T02:12:47.420Z,68.80
2022-12-28T02:13:47.348Z,68.80
2022-12-28T02:14:47.372Z,68.80
2022-12-28T02:15:47.353Z,69.00
2022-12-28T02:16:47.433Z,68.80
2022-12-28T02:17:47.350Z,68.80
2022-12-28T02:18:47.371Z,68.90
2022-12-28T02:19:47.340Z,68.80
2022-12-28T02:20:47.339Z,69.00
2022-12-28T02:21:47.342Z,68.90
2022-12-28T02:22:47.308Z,69.00
2022-12-28T02:23:47.302Z,69.00
2022-12-28T02:24:47.322Z,68.71
2022-12-28T02:25:47.308Z,69.00
2022-12-28T02:26:47.325Z,69.00
2022-12-28T02:27:47.287Z,68.90
2022-12-28T02:28:47.316Z,69.00
2022-12-28T02:29:47.273Z,69.00
2022-12-28T02:30:47.315Z,68.90
2022-12-28T02:31:47.279Z,68.90
2022-12-28T02:32:47.269Z,68.80
2022-12-28T02:33:47.272Z,68.80
2022-12-28T02:34:47.322Z,69.00
2022-12-28T02:35:47.268Z,68.90
2022-12-28T02:36:47.245Z,68.80
2022-12-28T02:37:47.249Z,68.80
2022-12-28T02:38:47.254Z,68.71
2022-12-28T02:39:47.238Z,68.71
2022-12-28T02:40:47.242Z,68.80
2022-12-28T02:41:47.231Z,68.71
2022-12-28T02:42:47.246Z,68.71
2022-12-28T02:43:47.216Z,68.80
2022-12-28T02:44:47.247Z,68.71
2022-12-28T02:45:47.255Z,68.71
2022-12-28T02:46:47.211Z,68.80
2022-12-28T02:47:47.186Z,68.71
2022-12-28T02:48:47.188Z,68.71
2022-12-28T02:49:47.210Z,68.71
2022-12-28T02:50:47.179Z,69.09
2022-12-28T02:51:47.167Z,68.80
2022-12-28T02:52:47.176Z,68.90
2022-12-28T02:53:47.182Z,68.80
2022-12-28T02:54:47.176Z,68.80
2022-12-28T02:55:47.150Z,68.90
2022-12-28T02:56:47.156Z,68.90
2022-12-28T02:57:47.144Z,69.00
2022-12-28T02:58:47.151Z,68.90
2022-12-28T02:59:47.163Z,68.90
2022-12-28T03:00:47.165Z,68.80
2022-12-28T03:01:47.306Z,68.90
2022-12-28T03:02:47.345Z,68.90
2022-12-28T03:03:47.137Z,68.90
2022-12-28T03:04:47.126Z,68.90
2022-12-28T03:05:47.125Z,69.00
2022-12-28T03:06:47.142Z,68.90
2022-12-28T03:07:47.122Z,69.00
2022-12-28T03:08:47.090Z,68.80
2022-12-28T03:09:47.079Z,68.90
2022-12-28T03:10:47.081Z,69.00
2022-12-28T03:11:47.131Z,69.19
2022-12-28T03:12:47.078Z,68.90
2022-12-28T03:13:47.086Z,69.19
2022-12-28T03:14:47.073Z,69.19
2022-12-28T03:15:47.129Z,68.90
2022-12-28T03:16:47.100Z,68.90
2022-12-28T03:17:47.077Z,69.19
2022-12-28T03:18:47.053Z,69.00
2022-12-28T03:19:47.046Z,69.09
2022-12-28T03:20:47.034Z,68.90
2022-12-28T03:21:47.043Z,68.90
2022-12-28T03:22:47.042Z,69.19
2022-12-28T03:23:47.017Z,68.80
2022-12-28T03:24:47.031Z,68.90
2022-12-28T03:25:47.001Z,68.90
2022-12-28T03:26:47.009Z,69.09
2022-12-28T03:27:47.000Z,68.80
2022-12-28T03:28:46.994Z,68.90
2022-12-28T03:29:47.006Z,69.00
2022-12-28T03:30:47.034Z,69.09
2022-12-28T03:31:46.974Z,68.90
2022-12-28T03:32:47.013Z,68.80
2022-12-28T03:33:47.009Z,69.09
2022-12-28T03:34:46.965Z,68.80
2022-12-28T03:35:46.969Z,69.09
2022-12-28T03:36:46.958Z,69.09
2022-12-28T03:37:46.949Z,69.09
2022-12-28T03:38:46.960Z,69.09
2022-12-28T03:39:46.947Z,68.62
2022-12-28T03:40:46.951Z,68.90
2022-12-28T03:41:46.966Z,68.71
2022-12-28T03:42:46.971Z,68.62
2022-12-28T03:43:46.933Z,68.71
2022-12-28T03:44:46.935Z,68.62
2022-12-28T03:45:47.684Z,68.71
2022-12-28T03:46:46.955Z,69.09
2022-12-28T03:47:46.912Z,68.42
2022-12-28T03:48:46.940Z,68.71
2022-12-28T03:49:46.895Z,68.90
2022-12-28T03:50:46.906Z,68.42
2022-12-28T03:51:46.881Z,69.00
2022-12-28T03:52:46.895Z,68.71
2022-12-28T03:53:46.883Z,68.62
2022-12-28T03:54:46.888Z,68.42
2022-12-28T03:55:46.881Z,68.80
2022-12-28T03:56:47.091Z,68.42
2022-12-28T03:57:46.869Z,68.42
2022-12-28T03:58:46.855Z,68.62
2022-12-28T03:59:46.851Z,68.62
2022-12-28T04:00:46.848Z,68.71
2022-12-28T04:01:46.967Z,68.62
2022-12-28T04:02:46.958Z,68.71
2022-12-28T04:03:46.827Z,68.52
2022-12-28T04:04:46.852Z,68.52
2022-12-28T04:05:46.829Z,68.80
2022-12-28T04:06:46.819Z,68.80
2022-12-28T04:07:46.821Z,68.71
2022-12-28T04:08:46.836Z,68.80
2022-12-28T04:09:46.825Z,68.71
2022-12-28T04:10:46.807Z,68.52
2022-12-28T04:11:46.809Z,68.71
2022-12-28T04:12:46.808Z,68.62
2022-12-28T04:13:46.816Z,68.71
2022-12-28T04:14:46.783Z,68.52
2022-12-28T04:15:46.827Z,68.52
2022-12-28T04:16:46.771Z,68.62
2022-12-28T04:17:46.759Z,68.52
2022-12-28T04:18:46.775Z,69.00
2022-12-28T04:19:46.746Z,68.62
2022-12-28T04:21:28.660Z,68.71
2022-12-28T04:22:28.634Z,69.00
2022-12-28T04:23:28.635Z,68.52
2022-12-28T04:24:28.607Z,68.71
2022-12-28T04:25:28.612Z,68.52
2022-12-28T04:26:28.592Z,68.52
2022-12-28T04:27:28.584Z,68.33
2022-12-28T04:28:28.608Z,68.52
2022-12-28T04:29:28.579Z,68.90
2022-12-28T04:30:28.591Z,68.52
2022-12-28T04:31:28.620Z,68.90
2022-12-28T04:32:28.580Z,68.80
2022-12-28T04:33:28.576Z,68.52
2022-12-28T04:34:28.562Z,68.71
2022-12-28T04:35:28.549Z,68.52
2022-12-28T04:36:28.549Z,68.90
2022-12-28T04:37:28.561Z,68.90
2022-12-28T04:38:28.557Z,68.71
2022-12-28T04:39:28.544Z,68.42
2022-12-28T04:40:28.564Z,68.80
2022-12-28T04:41:28.525Z,68.90
2022-12-28T04:42:28.566Z,68.90
2022-12-28T04:43:28.528Z,68.52
2022-12-28T04:44:28.531Z,68.52
2022-12-28T04:45:28.514Z,68.52
2022-12-28T04:46:28.563Z,68.42
2022-12-28T04:47:28.513Z,68.90
2022-12-28T04:48:28.511Z,68.42
2022-12-28T04:49:28.501Z,68.80
2022-12-28T04:50:28.503Z,68.52
2022-12-28T04:51:28.484Z,68.90
2022-12-28T04:52:28.477Z,68.80
2022-12-28T04:53:28.508Z,68.71
2022-12-28T04:54:28.476Z,68.80
2022-12-28T04:55:32.282Z,69.19
2022-12-28T04:56:28.459Z,69.29
2022-12-28T04:57:28.459Z,68.71
2022-12-28T04:58:28.460Z,69.19
2022-12-28T04:59:28.443Z,68.42
2022-12-28T05:00:28.532Z,69.09
2022-12-28T05:01:28.566Z,68.62
2022-12-28T05:02:28.587Z,68.33
2022-12-28T05:03:28.425Z,68.71
2022-12-28T05:04:28.423Z,69.19
2022-12-28T05:05:28.438Z,68.33
2022-12-28T05:06:28.411Z,68.33
2022-12-28T05:07:28.413Z,69.19
2022-12-28T05:08:28.405Z,69.29
2022-12-28T05:09:28.436Z,69.19
2022-12-28T05:10:28.421Z,68.33
2022-12-28T05:11:28.383Z,68.33
2022-12-28T05:12:28.387Z,69.19
2022-12-28T05:13:28.382Z,69.09
2022-12-28T05:14:33.618Z,69.09
2022-12-28T05:15:28.382Z,68.33
2022-12-28T05:16:28.429Z,68.33
2022-12-28T05:17:28.359Z,69.19
2022-12-28T05:18:28.367Z,68.80
2022-12-28T05:19:28.349Z,69.19
2022-12-28T05:20:28.362Z,69.00
2022-12-28T05:21:28.351Z,69.00
2022-12-28T05:22:28.337Z,68.90
2022-12-28T05:23:28.331Z,69.09
2022-12-28T05:24:28.339Z,69.00
2022-12-28T05:25:28.352Z,69.09
2022-12-28T05:26:28.342Z,69.00
2022-12-28T05:27:28.309Z,69.00
2022-12-28T05:28:28.328Z,68.33
2022-12-28T05:29:28.312Z,68.52
2022-12-28T05:30:28.301Z,68.71
2022-12-28T05:31:28.354Z,68.23
2022-12-28T05:32:28.297Z,69.00
2022-12-28T05:33:28.287Z,69.00
2022-12-28T05:34:28.302Z,68.90
2022-12-28T05:35:28.289Z,69.09
2022-12-28T05:36:28.285Z,68.90
2022-12-28T05:37:28.284Z,69.09
2022-12-28T05:38:28.280Z,69.09
2022-12-28T05:39:28.271Z,69.00
2022-12-28T05:40:28.273Z,69.09
2022-12-28T05:41:28.314Z,69.09
2022-12-28T05:42:28.280Z,68.52
2022-12-28T05:43:28.269Z,68.71
2022-12-28T05:44:28.240Z,68.33
2022-12-28T05:45:28.224Z,68.71
2022-12-28T05:46:28.266Z,68.52
2022-12-28T05:47:28.217Z,68.90
2022-12-28T05:48:28.227Z,68.90
2022-12-28T05:49:28.211Z,68.90
2022-12-28T05:50:28.219Z,68.71
2022-12-28T05:51:28.231Z,68.52
2022-12-28T05:52:28.212Z,68.90
2022-12-28T05:53:28.207Z,68.90
2022-12-28T05:54:28.189Z,68.62
2022-12-28T05:55:28.196Z,68.90
2022-12-28T05:56:28.215Z,68.62
2022-12-28T05:57:28.307Z,68.62
2022-12-28T05:58:28.232Z,68.90
2022-12-28T05:59:28.177Z,68.62
2022-12-28T06:00:28.170Z,68.62
2022-12-28T06:01:28.212Z,68.71
2022-12-28T06:02:28.257Z,68.62
2022-12-28T06:03:28.308Z,68.62
2022-12-28T06:04:28.155Z,68.71
2022-12-28T06:05:28.159Z,68.52
2022-12-28T06:06:28.144Z,68.52
2022-12-28T06:07:28.154Z,68.62
2022-12-28T06:08:28.138Z,68.52
2022-12-28T06:09:28.141Z,68.52
2022-12-28T06:10:28.131Z,68.71
2022-12-28T06:11:28.130Z,68.62
2022-12-28T06:12:28.108Z,68.80
2022-12-28T06:13:28.138Z,68.80
2022-12-28T06:14:28.113Z,68.62
2022-12-28T06:15:28.097Z,68.71
2022-12-28T06:16:28.220Z,68.52
2022-12-28T06:17:28.106Z,68.80
2022-12-28T06:18:28.082Z,68.52
2022-12-28T06:19:28.079Z,68.71
2022-12-28T06:20:28.072Z,68.52
2022-12-28T06:21:28.083Z,68.52
2022-12-28T06:22:28.060Z,68.62
2022-12-28T06:23:28.070Z,68.52
2022-12-28T06:24:28.062Z,68.52
2022-12-28T06:25:28.066Z,68.71
2022-12-28T06:26:28.067Z,68.52
2022-12-28T06:27:28.078Z,68.71
2022-12-28T06:28:28.060Z,68.62
2022-12-28T06:29:28.086Z,68.80
2022-12-28T06:30:28.041Z,68.62
2022-12-28T06:31:28.071Z,68.52
2022-12-28T06:32:28.053Z,68.71
2022-12-28T06:33:28.033Z,68.71
2022-12-28T06:34:28.009Z,68.80
2022-12-28T06:35:28.018Z,68.71
2022-12-28T06:36:27.999Z,68.71
2022-12-28T06:37:28.013Z,68.71
2022-12-28T06:38:28.004Z,68.71
2022-12-28T06:39:28.002Z,68.71
2022-12-28T06:40:39.656Z,68.90
2022-12-28T06:41:27.996Z,68.80
2022-12-28T06:42:27.978Z,68.71
2022-12-28T06:43:27.964Z,68.80
2022-12-28T06:44:27.962Z,68.71
2022-12-28T06:45:28.006Z,68.80
2022-12-28T06:46:27.968Z,68.71
2022-12-28T06:47:27.961Z,68.71
2022-12-28T06:48:27.959Z,68.71
2022-12-28T06:49:27.948Z,68.71
2022-12-28T06:50:27.931Z,68.80
2022-12-28T06:51:27.955Z,68.80
2022-12-28T06:52:27.934Z,68.80
2022-12-28T06:53:27.944Z,68.80
2022-12-28T06:54:27.936Z,68.62
2022-12-28T06:55:27.922Z,68.62
2022-12-28T06:56:27.922Z,68.71
2022-12-28T06:57:27.906Z,68.80
2022-12-28T06:58:27.910Z,68.80
2022-12-28T06:59:27.915Z,68.71
2022-12-28T07:00:27.912Z,68.80
2022-12-28T07:01:27.987Z,68.90
2022-12-28T07:02:28.056Z,68.80
2022-12-28T07:03:27.878Z,68.80
2022-12-28T07:04:27.881Z,68.80
2022-12-28T07:05:27.900Z,68.80
2022-12-28T07:06:27.881Z,68.80
2022-12-28T07:07:27.871Z,68.80
2022-12-28T07:08:27.850Z,68.62
2022-12-28T07:09:27.878Z,68.62
2022-12-28T07:10:27.869Z,68.71
2022-12-28T07:11:27.853Z,68.71
2022-12-28T07:12:27.839Z,68.80
2022-12-28T07:13:28.423Z,68.71
2022-12-28T07:14:27.847Z,68.71
2022-12-28T07:15:27.844Z,68.80
2022-12-28T07:17:27.855Z,68.80
2022-12-28T07:18:27.843Z,68.80
2022-12-28T07:19:27.842Z,68.80
2022-12-28T07:20:27.871Z,68.71
2022-12-28T07:21:27.806Z,68.90
2022-12-28T07:22:27.786Z,68.80
2022-12-28T07:23:27.795Z,68.80
2022-12-28T07:24:27.795Z,68.74
2022-12-28T07:25:27.789Z,69.00
2022-12-28T07:26:27.781Z,68.90
2022-12-28T07:27:27.776Z,68.71
2022-12-28T07:28:27.778Z,69.00
2022-12-28T07:29:27.762Z,68.71
2022-12-28T07:30:27.850Z,68.52
2022-12-28T07:32:17.642Z,68.71
2022-12-28T07:33:17.664Z,68.71
2022-12-28T07:34:17.645Z,68.90
2022-12-28T07:35:17.626Z,68.71
2022-12-28T07:36:20.363Z,68.62
2022-12-28T07:37:17.616Z,68.90
2022-12-28T07:38:21.283Z,68.62
2022-12-28T07:39:17.943Z,68.62
2022-12-28T07:40:17.830Z,68.80
2022-12-28T07:41:17.602Z,68.80
2022-12-28T07:42:17.655Z,68.90
2022-12-28T07:43:17.586Z,68.62
2022-12-28T07:44:17.586Z,68.52
2022-12-28T07:45:17.571Z,68.52
2022-12-28T07:46:17.742Z,68.42
2022-12-28T07:47:17.581Z,68.52
2022-12-28T07:48:17.588Z,68.90
2022-12-28T07:49:17.583Z,68.52
2022-12-28T07:50:17.560Z,68.52
2022-12-28T07:51:17.551Z,68.52
2022-12-28T07:52:17.551Z,68.42
2022-12-28T07:53:22.040Z,68.52
2022-12-28T07:54:17.546Z,68.62
2022-12-28T07:55:17.530Z,68.80
2022-12-28T07:56:17.530Z,68.62
2022-12-28T07:57:17.537Z,68.52
2022-12-28T07:58:17.532Z,68.80
2022-12-28T07:59:17.509Z,68.80
2022-12-28T08:00:17.521Z,68.42
2022-12-28T08:01:17.663Z,68.42
2022-12-28T08:02:17.603Z,68.62
2022-12-28T08:03:17.522Z,68.52
2022-12-28T08:04:17.511Z,68.55
2022-12-28T08:05:17.566Z,68.55
2022-12-28T08:06:17.488Z,68.52
2022-12-28T08:07:17.472Z,68.52
2022-12-28T08:08:17.489Z,68.33
2022-12-28T08:09:17.469Z,68.42
2022-12-28T08:10:17.474Z,68.36
2022-12-28T08:11:17.471Z,68.52
2022-12-28T08:12:17.473Z,68.42
2022-12-28T08:13:17.462Z,68.46
2022-12-28T08:14:17.467Z,68.52
2022-12-28T08:15:17.472Z,68.71
2022-12-28T08:16:17.476Z,68.42
2022-12-28T08:17:20.972Z,68.46
2022-12-28T08:18:17.432Z,68.80
2022-12-28T08:19:17.437Z,68.80
2022-12-28T08:20:17.442Z,68.80
2022-12-28T08:21:17.431Z,68.71
2022-12-28T08:22:17.443Z,68.80
2022-12-28T08:23:17.428Z,68.65
2022-12-28T08:24:17.412Z,68.84
2022-12-28T08:25:17.395Z,68.62
2022-12-28T08:26:17.412Z,68.84
2022-12-28T08:27:17.396Z,68.74
2022-12-28T08:28:17.382Z,68.74
2022-12-28T08:29:17.399Z,68.71
2022-12-28T08:30:17.390Z,68.62
2022-12-28T08:31:17.438Z,68.62
2022-12-28T08:32:17.379Z,68.84
2022-12-28T08:33:17.362Z,68.71
2022-12-28T08:34:17.383Z,68.84
2022-12-28T08:35:17.352Z,68.65
2022-12-28T08:36:17.381Z,68.71
2022-12-28T08:37:17.379Z,68.65
2022-12-28T08:38:17.377Z,68.80
2022-12-28T08:39:17.338Z,68.84
2022-12-28T08:40:17.339Z,68.62
2022-12-28T08:41:17.337Z,68.33
2022-12-28T08:42:17.325Z,68.62
2022-12-28T08:43:17.350Z,68.62
2022-12-28T08:44:17.311Z,68.46
2022-12-28T08:45:17.325Z,68.65
2022-12-28T08:46:17.537Z,68.65
2022-12-28T08:47:17.344Z,68.65
2022-12-28T08:48:17.306Z,68.84
2022-12-28T08:49:17.290Z,68.65
2022-12-28T08:50:20.054Z,68.13
2022-12-28T08:51:17.319Z,68.52
2022-12-28T08:52:17.290Z,68.65
2022-12-28T08:53:17.313Z,68.46
2022-12-28T08:54:17.291Z,68.74
2022-12-28T08:55:17.263Z,68.42
2022-12-28T08:56:17.262Z,68.17
2022-12-28T08:57:17.251Z,68.27
2022-12-28T08:58:17.252Z,68.55
2022-12-28T08:59:17.259Z,68.36
2022-12-28T09:00:17.254Z,68.52
2022-12-28T09:01:17.473Z,68.55
2022-12-28T09:02:17.345Z,68.17
2022-12-28T09:03:17.396Z,68.46
2022-12-28T09:04:17.239Z,68.55
2022-12-28T09:05:17.216Z,68.46
2022-12-28T09:06:17.219Z,68.65
2022-12-28T09:07:17.223Z,68.55
2022-12-28T09:08:17.235Z,68.46
2022-12-28T09:09:17.325Z,68.46
2022-12-28T09:10:17.277Z,68.55
2022-12-28T09:11:17.202Z,68.55
2022-12-28T09:12:17.206Z,68.17
2022-12-28T09:13:17.189Z,68.55
2022-12-28T09:14:23.283Z,68.46
2022-12-28T09:15:17.172Z,68.46
2022-12-28T09:16:17.255Z,68.27
2022-12-28T09:17:17.165Z,68.55
2022-12-28T09:18:17.205Z,68.46
2022-12-28T09:19:17.183Z,68.46
2022-12-28T09:20:17.159Z,68.65
2022-12-28T09:21:17.149Z,68.55
2022-12-28T09:22:17.150Z,68.55
2022-12-28T09:23:17.150Z,68.74
2022-12-28T09:24:17.178Z,68.46
2022-12-28T09:25:17.150Z,68.46
2022-12-28T09:26:17.136Z,68.74
2022-12-28T09:27:17.127Z,68.55
2022-12-28T09:28:17.141Z,68.65
2022-12-28T09:29:17.137Z,68.55
2022-12-28T09:30:17.123Z,68.55
2022-12-28T09:31:17.215Z,68.46
2022-12-28T09:32:17.109Z,68.46
2022-12-28T09:33:17.094Z,68.55
2022-12-28T09:34:36.320Z,68.65
2022-12-28T09:35:17.115Z,68.36
2022-12-28T09:36:17.087Z,68.36
2022-12-28T09:37:17.089Z,68.55
2022-12-28T09:38:17.090Z,68.46
2022-12-28T09:39:17.229Z,68.55
2022-12-28T09:40:17.091Z,68.46
2022-12-28T09:41:17.094Z,68.46
2022-12-28T09:42:17.068Z,68.65
2022-12-28T09:43:17.061Z,68.65
2022-12-28T09:44:17.052Z,68.55
2022-12-28T09:45:17.068Z,68.65
2022-12-28T09:46:17.084Z,68.36
2022-12-28T09:47:17.035Z,68.65
2022-12-28T09:48:17.051Z,68.46
2022-12-28T09:49:17.051Z,68.65
2022-12-28T09:50:17.116Z,68.55
2022-12-28T09:51:17.034Z,68.65
2022-12-28T09:52:17.046Z,68.55
2022-12-28T09:53:17.031Z,68.55
2022-12-28T09:54:17.022Z,68.55
2022-12-28T09:55:17.001Z,68.65
2022-12-28T09:56:17.014Z,68.55
2022-12-28T09:57:17.038Z,68.55
2022-12-28T09:58:17.006Z,68.55
2022-12-28T09:59:17.022Z,68.55
2022-12-28T10:00:17.043Z,68.55
2022-12-28T10:01:17.147Z,68.46
2022-12-28T10:02:17.043Z,68.55
2022-12-28T10:03:17.077Z,68.55
2022-12-28T10:04:16.983Z,68.46
2022-12-28T10:05:16.965Z,68.36
2022-12-28T10:06:16.970Z,68.46
2022-12-28T10:07:16.947Z,68.36
2022-12-28T10:08:20.785Z,68.46
2022-12-28T10:09:16.956Z,68.55
2022-12-28T10:10:16.957Z,68.36
2022-12-28T10:12:00.248Z,68.46
2022-12-28T10:12:58.961Z,68.46
2022-12-28T10:13:58.806Z,68.55
2022-12-28T10:14:58.795Z,68.46
2022-12-28T10:15:58.854Z,68.17
2022-12-28T10:16:58.789Z,68.55
2022-12-28T10:17:58.803Z,68.46
2022-12-28T10:18:58.789Z,68.17
2022-12-28T10:19:58.778Z,68.55
2022-12-28T10:20:58.785Z,68.55
2022-12-28T10:21:58.771Z,68.36
2022-12-28T10:22:58.777Z,68.55
2022-12-28T10:24:58.746Z,68.55
2022-12-28T10:25:58.743Z,68.46
2022-12-28T10:26:58.742Z,68.46
2022-12-28T10:27:58.736Z,68.46
2022-12-28T10:28:58.773Z,68.46
2022-12-28T10:29:58.731Z,68.07
2022-12-28T10:30:58.794Z,68.46
2022-12-28T10:31:58.715Z,68.07
2022-12-28T10:33:02.951Z,68.17
2022-12-28T10:33:58.733Z,68.36
2022-12-28T10:34:58.749Z,68.36
2022-12-28T10:35:58.720Z,68.65
2022-12-28T10:36:58.715Z,68.46
2022-12-28T10:37:58.702Z,68.07
2022-12-28T10:38:58.717Z,68.46
2022-12-28T10:39:58.698Z,68.07
2022-12-28T10:40:58.695Z,68.27
2022-12-28T10:41:58.699Z,68.07
2022-12-28T10:42:58.721Z,68.07
2022-12-28T10:44:37.419Z,68.55
2022-12-28T10:44:58.705Z,68.07
2022-12-28T10:45:58.654Z,68.07
2022-12-28T10:46:58.693Z,68.07
2022-12-28T10:47:58.664Z,68.17
2022-12-28T10:48:58.662Z,68.17
2022-12-28T10:50:58.658Z,67.98
2022-12-28T10:51:58.651Z,67.98
2022-12-28T10:52:58.662Z,68.27
2022-12-28T10:53:58.628Z,68.07
2022-12-28T10:55:08.491Z,68.07
2022-12-28T10:55:58.629Z,68.07
2022-12-28T10:56:58.617Z,68.55
2022-12-28T10:58:58.607Z,68.36
2022-12-28T10:59:58.617Z,68.46
2022-12-28T11:00:58.754Z,68.07
2022-12-28T11:01:58.780Z,68.36
2022-12-28T11:02:58.710Z,68.36
2022-12-28T11:03:58.587Z,68.36
2022-12-28T11:04:58.583Z,68.36
2022-12-28T11:05:58.619Z,68.36
2022-12-28T11:06:58.590Z,68.46
2022-12-28T11:07:58.576Z,68.07
2022-12-28T11:08:58.577Z,68.46
2022-12-28T11:09:58.561Z,68.36
2022-12-28T11:10:58.558Z,68.46
2022-12-28T11:11:58.570Z,68.17
2022-12-28T11:12:58.553Z,68.17
2022-12-28T11:13:58.537Z,68.65
2022-12-28T11:14:58.711Z,68.46
2022-12-28T11:15:58.601Z,68.46
2022-12-28T11:16:58.574Z,68.07
2022-12-28T11:17:58.524Z,68.46
2022-12-28T11:18:58.541Z,68.07
2022-12-28T11:19:58.533Z,68.17
2022-12-28T11:20:58.527Z,68.07
2022-12-28T11:21:58.525Z,68.46
2022-12-28T11:22:58.504Z,68.46
2022-12-28T11:23:58.522Z,68.46
2022-12-28T11:24:58.514Z,68.46
2022-12-28T11:25:58.502Z,68.36
2022-12-28T11:26:58.509Z,68.55
2022-12-28T11:27:58.501Z,68.55
2022-12-28T11:28:58.497Z,68.55
2022-12-28T11:29:58.505Z,68.46
2022-12-28T11:30:58.474Z,68.55
2022-12-28T11:31:58.527Z,68.36
2022-12-28T11:32:58.501Z,68.07
2022-12-28T11:33:58.478Z,68.46
2022-12-28T11:34:58.461Z,68.07
2022-12-28T11:35:59.921Z,68.07
2022-12-28T11:36:58.446Z,68.36
2022-12-28T11:37:58.455Z,68.46
2022-12-28T11:38:58.449Z,68.17
2022-12-28T11:39:58.546Z,68.36
2022-12-28T11:40:58.449Z,68.46
2022-12-28T11:42:58.436Z,68.46
2022-12-28T11:43:58.423Z,68.55
2022-12-28T11:44:58.412Z,68.55
2022-12-28T11:45:58.513Z,68.07
2022-12-28T11:46:58.424Z,68.46
2022-12-28T11:47:58.400Z,68.07
2022-12-28T11:48:58.434Z,68.07
2022-12-28T11:49:58.398Z,68.07
2022-12-28T11:50:58.392Z,68.55
2022-12-28T11:51:58.405Z,68.46
2022-12-28T11:52:58.377Z,67.98
2022-12-28T11:53:58.380Z,68.07
2022-12-28T11:54:58.513Z,68.17
2022-12-28T11:55:58.379Z,68.46
2022-12-28T11:56:58.372Z,68.46
2022-12-28T11:57:58.371Z,68.07
2022-12-28T11:58:58.366Z,68.07
2022-12-28T11:59:58.351Z,68.36
2022-12-28T12:00:58.393Z,68.27
2022-12-28T12:01:58.416Z,68.27
2022-12-28T12:02:58.446Z,68.46
2022-12-28T12:03:58.334Z,68.36
2022-12-28T12:04:58.343Z,68.65
2022-12-28T12:05:58.325Z,68.36
2022-12-28T12:06:58.320Z,68.36
2022-12-28T12:07:58.335Z,68.27
2022-12-28T12:08:58.312Z,68.17
2022-12-28T12:09:58.313Z,68.27
2022-12-28T12:10:58.303Z,68.17
2022-12-28T12:11:59.179Z,68.07
2022-12-28T12:12:58.296Z,67.98
2022-12-28T12:13:58.298Z,67.98
2022-12-28T12:14:58.304Z,68.17
2022-12-28T12:15:58.303Z,67.98
2022-12-28T12:16:58.348Z,68.17
2022-12-28T12:17:58.289Z,68.07
2022-12-28T12:18:58.281Z,67.98
2022-12-28T12:19:58.279Z,68.17
2022-12-28T12:20:58.293Z,68.17
2022-12-28T12:21:58.487Z,68.17
2022-12-28T12:22:58.308Z,68.55
2022-12-28T12:23:58.265Z,68.17
2022-12-28T12:24:58.246Z,67.98
2022-12-28T12:25:58.257Z,68.07
2022-12-28T12:26:58.233Z,68.07
2022-12-28T12:27:58.244Z,68.27
2022-12-28T12:28:58.237Z,68.27
2022-12-28T12:29:58.251Z,68.07
2022-12-28T12:30:58.244Z,68.17
2022-12-28T12:31:58.240Z,68.17
2022-12-28T12:32:58.229Z,68.07
2022-12-28T12:33:58.212Z,67.98
2022-12-28T12:34:58.203Z,68.36
2022-12-28T12:35:58.209Z,68.07
2022-12-28T12:36:58.226Z,68.36
2022-12-28T12:37:58.206Z,68.36
2022-12-28T12:38:58.205Z,68.27
2022-12-28T12:39:58.186Z,68.07
2022-12-28T12:40:58.177Z,68.65
2022-12-28T12:41:58.191Z,68.36
2022-12-28T12:42:58.184Z,68.07
2022-12-28T12:43:58.193Z,68.46
2022-12-28T12:44:58.176Z,68.46
2022-12-28T12:45:58.204Z,68.46
2022-12-28T12:47:05.255Z,68.46
2022-12-28T12:47:58.152Z,68.55
2022-12-28T12:48:58.162Z,68.46
2022-12-28T12:49:58.161Z,68.46
2022-12-28T12:50:58.150Z,68.55
2022-12-28T12:51:58.151Z,68.55
2022-12-28T12:52:58.153Z,68.36
2022-12-28T12:53:58.124Z,68.55
2022-12-28T12:54:58.133Z,68.36
2022-12-28T12:55:58.140Z,68.07
2022-12-28T12:56:58.123Z,68.36
2022-12-28T12:57:58.135Z,68.07
2022-12-28T12:58:58.114Z,68.46
2022-12-28T12:59:58.123Z,68.46